createdAt,value
2022-09-27T00:00:21.014Z,95032.88
2022-09-27T00:02:49.281Z,95024.34
2022-09-27T00:05:17.211Z,95018.19
2022-09-27T00:07:45.113Z,95023.28
2022-09-27T00:10:13.055Z,95019.53
2022-09-27T00:12:41.129Z,95012.06
2022-09-27T00:15:11.501Z,95021.13
2022-09-27T00:17:39.954Z,95016.59
2022-09-27T00:20:09.483Z,95021.13
2022-09-27T00:22:37.753Z,95005.66
2022-09-27T00:25:07.420Z,95005.13
2022-09-27T00:27:35.276Z,95011.25
2022-09-27T00:30:03.006Z,95014.47
2022-09-27T00:32:32.097Z,95014.19
2022-09-27T00:34:59.820Z,95004.31
2022-09-27T00:37:27.713Z,95010.72
2022-09-27T00:39:55.411Z,95009.66
2022-09-27T00:42:23.111Z,95009.91
2022-09-27T00:45:10.146Z,94995.47
2022-09-27T00:47:44.059Z,94998.69
2022-09-27T00:50:22.874Z,95006.16
2022-09-27T00:52:57.181Z,95012.59
2022-09-27T00:55:29.602Z,95003.22
2022-09-27T00:57:57.987Z,94988.53
2022-09-27T01:00:25.653Z,94995.47
2022-09-27T01:02:58.139Z,94985.84
2022-09-27T01:05:29.191Z,94989.56
2022-09-27T01:08:01.101Z,94834.16
2022-09-27T01:10:33.986Z,94990.91
2022-09-27T01:13:11.316Z,95000.00
2022-09-27T01:15:48.265Z,94997.84
2022-09-27T01:18:30.048Z,94995.22
2022-09-27T01:21:28.696Z,94990.13
2022-09-27T01:24:31.237Z,94993.31
2022-09-27T01:27:18.641Z,94994.13
2022-09-27T01:29:58.351Z,94993.81
2022-09-27T01:32:35.874Z,94999.72
2022-09-27T01:35:08.098Z,94991.69
2022-09-27T01:37:41.793Z,94981.78
2022-09-27T01:40:18.665Z,94989.53
2022-09-27T01:42:51.505Z,94992.22
2022-09-27T01:45:24.282Z,94981.78
2022-09-27T01:47:58.132Z,94991.13
2022-09-27T01:50:31.924Z,94994.88
2022-09-27T01:53:04.385Z,94989.53
2022-09-27T01:55:34.788Z,94982.56
2022-09-27T01:58:07.821Z,94987.66
2022-09-27T02:00:37.661Z,94990.63
2022-09-27T02:03:11.937Z,94995.97
2022-09-27T02:05:45.623Z,95004.53
2022-09-27T02:08:19.750Z,95014.72
2022-09-27T02:10:53.135Z,95021.94
2022-09-27T02:13:23.677Z,95015.78
2022-09-27T02:15:59.491Z,95014.72
2022-09-27T02:18:35.567Z,95023.28
2022-09-27T02:21:06.481Z,95025.91
2022-09-27T02:23:41.346Z,94988.25
2022-09-27T02:26:17.023Z,95023.81
2022-09-27T02:28:49.686Z,95016.28
2022-09-27T02:31:17.512Z,95016.03
2022-09-27T02:33:50.984Z,95024.88
2022-09-27T02:36:18.729Z,95030.75
2022-09-27T02:38:46.800Z,95012.03
2022-09-27T02:41:16.169Z,95017.38
2022-09-27T02:43:46.286Z,95023.25
2022-09-27T02:46:32.726Z,95030.22
2022-09-27T02:49:12.224Z,95024.31
2022-09-27T02:51:52.952Z,95037.41
2022-09-27T02:54:30.995Z,95013.59
2022-09-27T02:57:09.756Z,95030.72
2022-09-27T02:59:47.808Z,95032.06
2022-09-27T03:02:25.065Z,95038.19
2022-09-27T03:04:59.074Z,95043.78
2022-09-27T03:07:27.535Z,95050.25
2022-09-27T03:09:55.953Z,95045.13
2022-09-27T03:12:26.033Z,95046.19
2022-09-27T03:14:54.213Z,95041.38
2022-09-27T03:17:22.676Z,95040.84
2022-09-27T03:19:50.982Z,95048.31
2022-09-27T03:22:20.301Z,95053.13
2022-09-27T03:24:49.221Z,95060.06
2022-09-27T03:27:16.934Z,95058.75
2022-09-27T03:29:44.672Z,95060.88
2022-09-27T03:32:12.394Z,95063.84
2022-09-27T03:34:40.138Z,95060.63
2022-09-27T03:37:08.322Z,95066.50
2022-09-27T03:39:37.492Z,95062.47
2022-09-27T03:42:05.382Z,95070.75
2022-09-27T03:44:33.347Z,95077.69
2022-09-27T03:47:01.053Z,95070.41
2022-09-27T03:49:29.133Z,95074.41
2022-09-27T03:51:56.817Z,95074.16
2022-09-27T03:54:25.273Z,95071.75
2022-09-27T03:56:54.299Z,95083.50
2022-09-27T03:59:21.933Z,95080.81
2022-09-27T04:01:49.712Z,95079.22
2022-09-27T04:04:17.422Z,95072.28
2022-09-27T04:06:45.104Z,95076.28
2022-09-27T04:09:12.811Z,95077.06
2022-09-27T04:11:40.522Z,95076.31
2022-09-27T04:14:13.011Z,95089.13
2022-09-27T04:16:41.442Z,95077.88
2022-09-27T04:19:09.454Z,95079.25
2022-09-27T04:21:37.241Z,95085.63
2022-09-27T04:24:06.621Z,95082.69
2022-09-27T04:26:34.391Z,95085.06
2022-09-27T04:29:02.173Z,95083.00
2022-09-27T04:31:31.293Z,95087.50
2022-09-27T04:33:59.706Z,95097.09
2022-09-27T04:36:26.710Z,95080.75
2022-09-27T04:38:54.834Z,95095.00
2022-09-27T04:41:23.281Z,95089.94
2022-09-27T04:43:54.217Z,95093.09
2022-09-27T04:46:26.019Z,95093.09
2022-09-27T04:48:55.236Z,95101.38
2022-09-27T04:51:23.128Z,95111.28
2022-09-27T04:53:50.841Z,95106.19
2022-09-27T04:56:18.513Z,95108.81
2022-09-27T04:58:46.265Z,95112.34
2022-09-27T05:01:14.068Z,95105.06
2022-09-27T05:03:42.033Z,95104.25
2022-09-27T05:06:11.044Z,95112.28
2022-09-27T05:08:38.712Z,95112.25
2022-09-27T05:11:06.597Z,95129.91
2022-09-27T05:13:34.420Z,95113.34
2022-09-27T05:16:04.922Z,95111.97
2022-09-27T05:18:33.460Z,95125.59
2022-09-27T05:21:01.165Z,95122.97
2022-09-27T05:23:30.293Z,95130.66
2022-09-27T05:25:58.017Z,95130.31
2022-09-27T05:28:25.790Z,95131.13
2022-09-27T05:30:53.580Z,95135.63
2022-09-27T05:33:21.394Z,95145.25
2022-09-27T05:35:53.744Z,95138.59
2022-09-27T05:38:21.566Z,95147.88
2022-09-27T05:40:51.486Z,95152.69
2022-09-27T05:43:19.981Z,95152.94
2022-09-27T05:45:47.946Z,95161.75
2022-09-27T05:48:15.690Z,95160.16
2022-09-27T05:50:43.373Z,95168.19
2022-09-27T05:53:11.344Z,95172.22
2022-09-27T05:55:39.094Z,95181.84
2022-09-27T05:58:09.553Z,95176.56
2022-09-27T06:00:39.005Z,95182.72
2022-09-27T06:03:07.914Z,95188.63
2022-09-27T06:05:38.353Z,95186.25
2022-09-27T06:08:08.881Z,95197.16
2022-09-27T06:10:36.975Z,95205.69
2022-09-27T06:13:06.203Z,95199.28
2022-09-27T06:15:37.288Z,95202.22
2022-09-27T06:18:06.667Z,95205.75
2022-09-27T06:20:35.304Z,95212.69
2022-09-27T06:23:07.747Z,95211.59
2022-09-27T06:25:35.701Z,95222.25
2022-09-27T06:28:03.957Z,95214.78
2022-09-27T06:30:32.106Z,95209.44
2022-09-27T06:33:03.157Z,95211.28
2022-09-27T06:35:31.592Z,95217.75
2022-09-27T06:37:59.684Z,95215.09
2022-09-27T06:40:27.597Z,95219.88
2022-09-27T06:42:55.369Z,95220.69
2022-09-27T06:45:23.805Z,95227.09
2022-09-27T06:47:51.457Z,95231.34
2022-09-27T06:50:20.526Z,95240.13
2022-09-27T06:52:49.696Z,95226.25
2022-09-27T06:55:18.154Z,95231.72
2022-09-27T06:58:04.169Z,95247.78
2022-09-27T07:00:32.214Z,95249.50
2022-09-27T07:03:01.918Z,95255.91
2022-09-27T07:05:31.658Z,95251.94
2022-09-27T07:07:59.638Z,95243.97
2022-09-27T07:10:29.495Z,95261.84
2022-09-27T07:12:58.304Z,95257.53
2022-09-27T07:15:26.190Z,95245.81
2022-09-27T07:17:57.952Z,95256.78
2022-09-27T07:20:25.913Z,95258.66
2022-09-27T07:22:55.012Z,95265.34
2022-09-27T07:25:22.898Z,95268.25
2022-09-27T07:27:52.564Z,95279.25
2022-09-27T07:30:21.049Z,95277.38
2022-09-27T07:32:48.879Z,95290.97
2022-09-27T07:35:16.570Z,95282.00
2022-09-27T07:37:45.397Z,95274.69
2022-09-27T07:40:14.514Z,95285.66
2022-09-27T07:42:42.281Z,95290.81
2022-09-27T07:45:11.348Z,95287.56
2022-09-27T07:47:39.771Z,95291.84
2022-09-27T07:50:09.611Z,95304.13
2022-09-27T07:52:41.147Z,95298.53
2022-09-27T07:55:10.620Z,95301.00
2022-09-27T07:57:40.356Z,95305.81
2022-09-27T08:00:12.617Z,95316.50
2022-09-27T08:02:40.326Z,95318.31
2022-09-27T08:05:08.983Z,95323.69
2022-09-27T08:07:38.912Z,95321.00
2022-09-27T08:10:07.432Z,95322.31
2022-09-27T08:12:35.352Z,95330.88
2022-09-27T08:15:05.473Z,95315.59
2022-09-27T08:17:33.774Z,95333.13
2022-09-27T08:20:05.573Z,95340.38
2022-09-27T08:22:33.293Z,95343.03
2022-09-27T08:25:01.026Z,95328.56
2022-09-27T08:27:28.695Z,95322.88
2022-09-27T08:29:56.334Z,95335.19
2022-09-27T08:32:25.444Z,95327.47
2022-09-27T08:34:53.114Z,95340.28
2022-09-27T08:37:20.771Z,95320.69
2022-09-27T08:39:48.469Z,95322.56
2022-09-27T08:42:29.055Z,95332.63
2022-09-27T08:45:04.428Z,95329.38
2022-09-27T08:47:38.828Z,95330.53
2022-09-27T08:50:20.096Z,95333.78
2022-09-27T08:52:54.003Z,95321.47
2022-09-27T08:55:32.266Z,95326.53
2022-09-27T08:58:00.798Z,95323.72
2022-09-27T09:00:30.482Z,95333.66
2022-09-27T09:03:03.917Z,95341.47
2022-09-27T09:05:34.966Z,95332.44
2022-09-27T09:08:20.208Z,95325.34
2022-09-27T09:11:11.090Z,95259.56
2022-09-27T09:13:54.519Z,95338.72
2022-09-27T09:16:36.998Z,95330.84
2022-09-27T09:19:27.712Z,95330.66
2022-09-27T09:22:07.818Z,95332.47
2022-09-27T09:24:50.348Z,95335.41
2022-09-27T09:27:26.347Z,95338.25
2022-09-27T09:30:10.766Z,95327.59
2022-09-27T09:32:50.195Z,95323.56
2022-09-27T09:35:24.815Z,95321.88
2022-09-27T09:37:57.037Z,95309.03
2022-09-27T09:40:30.583Z,95324.53
2022-09-27T09:43:03.739Z,95307.88
2022-09-27T09:45:35.001Z,95323.34
2022-09-27T09:48:10.157Z,95306.88
2022-09-27T09:50:44.182Z,95303.78
2022-09-27T09:53:17.282Z,95288.75
2022-09-27T09:55:49.432Z,95291.44
2022-09-27T09:58:24.946Z,95309.63
2022-09-27T10:00:57.055Z,95306.50
2022-09-27T10:03:24.931Z,95303.13
2022-09-27T10:05:53.966Z,95300.66
2022-09-27T10:08:24.256Z,95290.66
2022-09-27T10:10:52.106Z,95296.19
2022-09-27T10:13:22.212Z,95301.09
2022-09-27T10:16:00.205Z,95283.91
2022-09-27T10:18:28.933Z,95287.06
2022-09-27T10:21:02.127Z,95297.03
2022-09-27T10:23:30.117Z,95301.97
2022-09-27T10:26:00.711Z,95289.88
2022-09-27T10:28:32.962Z,95288.75
2022-09-27T10:31:03.717Z,95268.63
2022-09-27T10:33:32.938Z,95270.47
2022-09-27T10:36:03.012Z,95292.44
2022-09-27T10:38:32.535Z,95293.63
2022-09-27T10:41:18.204Z,95305.00
2022-09-27T10:43:45.973Z,95314.19
2022-09-27T10:46:20.270Z,95335.19
2022-09-27T10:48:48.029Z,95344.84
2022-09-27T10:51:31.009Z,95330.44
2022-09-27T10:54:01.046Z,95321.66
2022-09-27T10:56:31.003Z,95323.00
2022-09-27T10:59:00.432Z,95331.00
2022-09-27T11:01:39.800Z,95327.03
2022-09-27T11:04:08.076Z,95333.75
2022-09-27T11:06:39.219Z,95332.44
2022-09-27T11:09:24.157Z,95337.34
2022-09-27T11:11:52.177Z,95339.31
2022-09-27T11:14:24.285Z,95338.84
2022-09-27T11:17:05.451Z,95342.44
2022-09-27T11:19:44.519Z,95338.25
2022-09-27T11:22:28.519Z,95355.66
2022-09-27T11:25:07.939Z,95339.91
2022-09-27T11:27:46.065Z,95336.38
2022-09-27T11:30:16.344Z,95350.47
2022-09-27T11:33:20.058Z,95346.09
2022-09-27T11:35:57.689Z,95334.19
2022-09-27T11:38:52.148Z,95311.97
2022-09-27T11:41:31.097Z,95317.28
2022-09-27T11:44:22.823Z,95315.69
2022-09-27T11:46:58.487Z,95315.72
2022-09-27T11:49:46.910Z,95307.13
2022-09-27T11:52:29.385Z,95303.03
2022-09-27T11:55:21.055Z,95302.13
2022-09-27T11:58:02.774Z,95295.50
2022-09-27T12:00:45.435Z,95297.09
2022-09-27T12:03:33.996Z,95291.34
2022-09-27T12:06:12.472Z,95289.91
2022-09-27T12:08:59.884Z,95286.00
2022-09-27T12:11:33.955Z,95290.75
2022-09-27T12:14:05.197Z,95286.69
2022-09-27T12:16:34.337Z,95270.41
2022-09-27T12:19:04.113Z,95259.53
2022-09-27T12:21:34.537Z,95268.72
2022-09-27T12:24:04.589Z,95265.03
2022-09-27T12:26:38.623Z,95256.28
2022-09-27T12:29:13.981Z,95263.78
2022-09-27T12:31:45.916Z,95248.19
2022-09-27T12:34:20.322Z,95254.97
2022-09-27T12:36:54.678Z,95246.19
2022-09-27T12:39:26.826Z,95249.50
2022-09-27T12:42:02.056Z,95260.16
2022-09-27T12:44:38.606Z,95257.09
2022-09-27T12:47:11.609Z,95255.56
2022-09-27T12:49:49.612Z,95256.72
2022-09-27T12:52:25.274Z,95256.56
2022-09-27T12:55:32.379Z,95252.16
2022-09-27T12:58:22.833Z,95250.66
2022-09-27T13:00:59.271Z,95244.81
2022-09-27T13:03:43.362Z,95240.19
2022-09-27T13:06:36.388Z,95247.34
2022-09-27T13:09:30.846Z,95247.03
2022-09-27T13:12:05.276Z,95247.59
2022-09-27T13:14:40.845Z,95247.59
2022-09-27T13:17:49.019Z,95242.75
2022-09-27T13:20:40.083Z,95243.31
2022-09-27T13:24:00.616Z,95253.47
2022-09-27T13:26:46.975Z,95225.22
2022-09-27T13:29:33.968Z,95239.28
2022-09-27T13:32:22.525Z,95243.78
2022-09-27T13:34:53.674Z,95248.88
2022-09-27T13:37:50.836Z,95239.06
2022-09-27T13:40:30.501Z,95229.00
2022-09-27T13:43:35.254Z,95252.66
2022-09-27T13:46:07.832Z,95244.41
2022-09-27T13:48:49.973Z,95249.25
2022-09-27T13:51:23.636Z,95219.72
2022-09-27T13:53:59.287Z,95235.63
2022-09-27T13:56:53.653Z,95227.38
2022-09-27T13:59:26.427Z,95239.34
2022-09-27T14:02:00.911Z,95229.22
2022-09-27T14:04:35.336Z,95231.66
2022-09-27T14:07:05.265Z,95219.38
2022-09-27T14:09:35.977Z,95229.56
2022-09-27T14:12:10.199Z,95239.75
2022-09-27T14:14:38.373Z,95233.84
2022-09-27T14:17:10.127Z,95226.84
2022-09-27T14:19:43.892Z,95222.94
2022-09-27T14:22:15.117Z,95238.69
2022-09-27T14:24:48.133Z,95235.19
2022-09-27T14:27:19.249Z,95235.81
2022-09-27T14:29:50.137Z,95237.72
2022-09-27T14:32:19.420Z,95234.50
2022-09-27T14:35:04.880Z,95240.91
2022-09-27T14:37:31.862Z,95238.06
2022-09-27T14:40:06.014Z,95245.03
2022-09-27T14:42:36.531Z,95249.56
2022-09-27T14:45:23.521Z,95240.47
2022-09-27T14:47:52.605Z,95243.13
2022-09-27T14:50:25.423Z,95246.06
2022-09-27T14:52:56.075Z,95261.34
2022-09-27T14:55:26.048Z,95251.97
2022-09-27T14:57:56.246Z,95264.03
2022-09-27T15:00:26.603Z,95266.94
2022-09-27T15:02:58.965Z,95259.19
2022-09-27T15:05:30.029Z,95272.56
2022-09-27T15:08:01.323Z,95260.50
2022-09-27T15:10:32.320Z,95266.09
2022-09-27T15:13:03.378Z,95263.41
2022-09-27T15:15:33.725Z,95260.72
2022-09-27T15:18:02.200Z,95245.19
2022-09-27T15:20:35.218Z,95263.66
2022-09-27T15:23:05.057Z,95232.88
2022-09-27T15:25:35.687Z,95269.56
2022-09-27T15:28:06.333Z,95263.94
2022-09-27T15:30:39.484Z,95260.19
2022-09-27T15:33:17.930Z,95255.88
2022-09-27T15:35:51.057Z,95250.84
2022-09-27T15:38:26.390Z,95251.59
2022-09-27T15:41:13.137Z,95251.63
2022-09-27T15:43:45.622Z,95260.19
2022-09-27T15:46:35.280Z,95253.50
2022-09-27T15:49:22.864Z,95257.75
2022-09-27T15:51:53.328Z,95252.69
2022-09-27T15:54:21.686Z,95265.25
2022-09-27T15:56:55.063Z,95267.63
2022-09-27T15:59:26.551Z,95241.91
2022-09-27T16:01:57.402Z,95270.00
2022-09-27T16:04:26.213Z,95264.03
2022-09-27T16:06:55.639Z,95271.81
2022-09-27T16:09:23.414Z,95279.59
2022-09-27T16:11:51.883Z,95298.47
2022-09-27T16:14:19.885Z,95299.03
2022-09-27T16:16:50.125Z,95295.31
2022-09-27T16:19:17.937Z,95339.59
2022-09-27T16:21:48.357Z,95343.50
2022-09-27T16:24:18.172Z,95371.88
2022-09-27T16:26:45.863Z,95349.16
2022-09-27T16:29:15.983Z,95336.59
2022-09-27T16:31:44.239Z,95325.28
2022-09-27T16:34:12.696Z,95326.91
2022-09-27T16:36:40.708Z,95331.94
2022-09-27T16:39:12.746Z,95330.75
2022-09-27T16:41:42.294Z,95333.78
2022-09-27T16:44:12.320Z,95336.81
2022-09-27T16:46:41.338Z,95337.13
2022-09-27T16:49:30.388Z,95333.78
2022-09-27T16:52:00.147Z,95323.13
2022-09-27T16:54:29.258Z,95331.47
2022-09-27T16:56:59.384Z,95335.13
2022-09-27T16:59:27.788Z,95334.97
2022-09-27T17:01:57.193Z,95340.09
2022-09-27T17:04:25.266Z,95344.69
2022-09-27T17:06:53.204Z,95321.50
2022-09-27T17:09:20.885Z,95353.81
2022-09-27T17:11:48.664Z,95341.38
2022-09-27T17:14:18.093Z,95335.03
2022-09-27T17:16:47.192Z,95329.66
2022-09-27T17:19:15.329Z,95320.47
2022-09-27T17:21:43.517Z,95323.31
2022-09-27T17:24:11.354Z,95317.53
2022-09-27T17:26:39.180Z,95316.47
2022-09-27T17:29:07.973Z,95321.06
2022-09-27T17:31:40.346Z,95308.09
2022-09-27T17:34:09.451Z,95314.00
2022-09-27T17:36:37.599Z,95318.47
2022-09-27T17:39:06.085Z,95329.50
2022-09-27T17:41:39.607Z,95325.03
2022-09-27T17:44:07.877Z,95326.69
2022-09-27T17:46:38.029Z,95329.25
2022-09-27T17:49:19.699Z,95323.97
2022-09-27T17:51:49.042Z,95323.47
2022-09-27T17:54:18.693Z,95325.66
2022-09-27T17:56:47.986Z,95327.03
2022-09-27T17:59:16.822Z,95323.03
2022-09-27T18:01:47.952Z,95321.59
2022-09-27T18:04:17.585Z,95300.72
2022-09-27T18:06:46.703Z,95321.72
2022-09-27T18:09:16.267Z,95325.66
2022-09-27T18:11:44.821Z,95320.13
2022-09-27T18:14:13.291Z,95328.97
2022-09-27T18:16:43.842Z,95318.25
2022-09-27T18:19:17.305Z,95319.25
2022-09-27T18:21:45.165Z,95326.03
2022-09-27T18:24:14.122Z,95327.88
2022-09-27T18:26:42.259Z,95332.09
2022-09-27T18:29:15.470Z,95311.81
2022-09-27T18:31:48.138Z,95329.97
2022-09-27T18:34:19.173Z,95338.56
2022-09-27T18:36:47.198Z,95332.59
2022-09-27T18:39:18.218Z,95326.78
2022-09-27T18:41:48.468Z,95323.56
2022-09-27T18:44:17.144Z,95319.31
2022-09-27T18:46:45.024Z,95310.22
2022-09-27T18:49:14.818Z,95318.81
2022-09-27T18:51:46.902Z,95308.28
2022-09-27T18:54:17.236Z,95322.47
2022-09-27T18:56:45.410Z,95322.22
2022-09-27T18:59:13.325Z,95310.66
2022-09-27T19:01:45.076Z,95329.97
2022-09-27T19:04:15.307Z,95328.38
2022-09-27T19:06:44.626Z,95328.09
2022-09-27T19:09:12.910Z,95325.38
2022-09-27T19:11:40.683Z,95322.47
2022-09-27T19:14:08.415Z,95333.19
2022-09-27T19:16:36.090Z,95316.50
2022-09-27T19:19:03.772Z,95325.16
2022-09-27T19:21:31.421Z,95320.13
2022-09-27T19:24:00.482Z,95338.84
2022-09-27T19:26:29.684Z,95336.63
2022-09-27T19:28:58.771Z,95331.63
2022-09-27T19:31:29.468Z,95326.25
2022-09-27T19:34:00.493Z,95346.09
2022-09-27T19:36:29.155Z,95341.81
2022-09-27T19:38:58.522Z,95345.84
2022-09-27T19:41:28.186Z,95336.72
2022-09-27T19:43:56.722Z,95337.53
2022-09-27T19:46:26.439Z,95342.88
2022-09-27T19:48:55.118Z,95333.81
2022-09-27T19:51:24.869Z,95339.38
2022-09-27T19:53:53.346Z,95339.63
2022-09-27T19:56:21.909Z,95315.72
2022-09-27T19:58:51.618Z,95334.25
2022-09-27T20:01:21.249Z,95341.84
2022-09-27T20:03:50.644Z,95337.78
2022-09-27T20:06:20.182Z,95337.53
2022-09-27T20:08:48.312Z,95302.72
2022-09-27T20:11:17.741Z,95332.97
2022-09-27T20:13:45.531Z,95320.91
2022-09-27T20:16:16.361Z,95326.84
2022-09-27T20:18:45.736Z,95323.22
2022-09-27T20:21:14.188Z,95316.13
2022-09-27T20:23:41.944Z,95317.22
2022-09-27T20:26:13.214Z,95337.56
2022-09-27T20:28:42.709Z,95334.38
2022-09-27T20:31:12.295Z,95328.97
2022-09-27T20:33:49.683Z,95323.63
2022-09-27T20:36:18.518Z,95325.25
2022-09-27T20:38:47.697Z,95330.84
2022-09-27T20:41:17.688Z,95324.63
2022-09-27T20:43:46.104Z,95331.91
2022-09-27T20:46:17.132Z,95322.00
2022-09-27T20:48:47.493Z,95323.34
2022-09-27T20:51:15.858Z,95325.03
2022-09-27T20:53:45.078Z,95318.06
2022-09-27T20:56:20.068Z,95311.63
2022-09-27T20:58:48.732Z,95295.28
2022-09-27T21:01:18.088Z,95298.72
2022-09-27T21:03:47.756Z,95289.13
2022-09-27T21:06:16.642Z,95296.06
2022-09-27T21:08:44.317Z,95293.72
2022-09-27T21:11:14.065Z,95290.00
2022-09-27T21:13:43.179Z,95282.22
2022-09-27T21:16:14.515Z,95277.72
2022-09-27T21:18:42.975Z,95264.41
2022-09-27T21:21:13.820Z,95233.78
2022-09-27T21:23:44.809Z,95258.94
2022-09-27T21:26:15.446Z,95248.75
2022-09-27T21:28:44.952Z,95239.69
2022-09-27T21:31:18.936Z,95255.22
2022-09-27T21:33:53.875Z,95253.84
2022-09-27T21:36:23.499Z,95246.44
2022-09-27T21:38:51.484Z,95248.31
2022-09-27T21:41:19.863Z,95249.13
2022-09-27T21:43:50.253Z,95247.94
2022-09-27T21:46:20.022Z,95249.09
2022-09-27T21:48:49.698Z,95255.16
2022-09-27T21:51:20.077Z,95247.22
2022-09-27T21:53:53.272Z,95244.28
2022-09-27T21:56:21.715Z,95242.59
2022-09-27T21:58:50.089Z,95253.38
2022-09-27T22:01:19.716Z,95252.53
2022-09-27T22:03:48.937Z,95252.03
2022-09-27T22:06:18.547Z,95251.22
2022-09-27T22:08:47.033Z,95251.03
2022-09-27T22:11:18.143Z,95246.72
2022-09-27T22:13:46.015Z,95257.97
2022-09-27T22:16:15.425Z,95255.53
2022-09-27T22:18:46.051Z,95249.13
2022-09-27T22:21:16.927Z,95245.16
2022-09-27T22:23:45.615Z,95244.03
2022-09-27T22:26:14.919Z,95231.72
2022-09-27T22:28:44.721Z,95233.41
2022-09-27T22:31:15.057Z,95227.56
2022-09-27T22:33:43.334Z,95227.50
2022-09-27T22:36:11.078Z,95231.84
2022-09-27T22:38:38.728Z,95220.59
2022-09-27T22:41:06.465Z,95205.41
2022-09-27T22:43:34.220Z,95204.28
2022-09-27T22:46:03.239Z,95212.59
2022-09-27T22:48:32.957Z,95210.13
2022-09-27T22:51:01.718Z,95208.31
2022-09-27T22:53:30.995Z,95192.88
2022-09-27T22:56:03.832Z,95188.56
2022-09-27T22:58:32.830Z,95193.34
2022-09-27T23:01:01.212Z,95189.03
2022-09-27T23:03:30.947Z,95177.25
2022-09-27T23:06:02.998Z,95165.19
2022-09-27T23:08:33.066Z,95169.44
2022-09-27T23:11:05.460Z,95133.81
2022-09-27T23:13:34.145Z,95159.28
2022-09-27T23:16:03.112Z,95160.91
2022-09-27T23:18:32.612Z,95161.44
2022-09-27T23:21:03.478Z,95147.28
2022-09-27T23:23:31.878Z,95146.94
2022-09-27T23:26:00.828Z,95141.34
2022-09-27T23:28:28.915Z,95136.50
2022-09-27T23:30:56.759Z,95128.25
2022-09-27T23:33:24.751Z,95114.06
2022-09-27T23:35:53.905Z,95100.19
2022-09-27T23:38:21.762Z,95092.28
2022-09-27T23:40:49.494Z,95087.78
2022-09-27T23:43:17.234Z,95095.56
2022-09-27T23:45:45.042Z,95108.34
2022-09-27T23:48:15.217Z,95103.78
2022-09-27T23:50:44.141Z,95072.44
2022-09-27T23:53:13.213Z,95090.34
2022-09-27T23:55:40.937Z,95099.47
2022-09-27T23:58:08.599Z,95092.06
